Details From TLPL - St. Lucia/Hewanorra Intl
To TBPB - Barbados/Grantley Adams Intl
Flight Number -
Tags decoded
Created
Modified
Stats Distance 100 nm / 185 km
Max Altitude 0 ft / 0 m
Waypoints 9
Social Downloads 0
Likes 0
Share

Download

Looking for another format? Having issues loading an existing format? Contact us
Advertisement - Login to hide

Notes

Requested: TLPL TIBOT ANKAR BGI01 BGI28 BGI09 BGI07 R1362 TBPB

Route

TLPL TIBOT ANKAR BGI01 BGI28 BGI09 BGI07 R1362 TBPB

ID Type Via Altitude (ft/m) Position (lat/lon) Dist (leg/tot) Name
O TLPL APT - 0 / 0 13.73319 / -60.95260 - / 0 nm St. Lucia/Hewanorra Intl
TIBOT FIX - 0 / 0 13.56239 / -60.58647 23 / 23 nm
ANKAR FIX - 0 / 0 13.43639 / -60.29889 18 / 42 nm
BGI01 FIX - 0 / 0 13.15249 / -59.72771 37 / 79 nm
BGI28 FIX - 0 / 0 13.06168 / -59.73982 5 / 85 nm
BGI09 FIX - 0 / 0 13.04615 / -59.63481 6 / 91 nm
BGI07 FIX - 0 / 0 13.05256 / -59.60127 1 / 93 nm
R1362 FIX - 0 / 0 13.07091 / -59.50749 5 / 98 nm
O TBPB APT - 0 / 0 13.07461 / -59.49221 0 / 99 nm Barbados/Grantley Adams Intl

Altitude Profile

Advertisement - Login to hide

TLPL

Details ICAO TLPL (UVF)
Name St. Lucia/Hewanorra Intl
Region Saint Lucia
Timezone America/St_Lucia (UTC-4.0)
Stats Elevation 14 ft / 4 m (AMSL)
Location 13.733400° -60.952800°
Runways 1
Magnetic Variation 15.211° W

METAR

TLPL 111000Z 06014KT 9999 SCT023 27/22 Q1015 NOSIG

Decode

TAF

TAF TLPL 110500Z 1106/1206 07017KT 9999 SCT025

Decode

Departure Runways

ID Width Length Bearing (true/mag) Surface Threshold Overrun Markings Lighting
10 151 ft / 46 m 9,011 ft / 2,747 m 90.01° / 105.22° ASPHALT 0 ft / 0 m 0 ft / 0 m PREC-APP EDGE THRESHOLD MALS REIL-OMNI
28 151 ft / 46 m 9,011 ft / 2,747 m 270.01° / 285.22° ASPHALT 515 ft / 157 m 0 ft / 0 m PREC-APP EDGE THRESHOLD

TBPB

Details ICAO TBPB (BGI)
Name Grantley Adams Intl
Region Barbados
Timezone America/Barbados (UTC-4.0)
Stats Elevation 166 ft / 51 m (AMSL)
Location 13.074600° -59.492100°
Runways 1
Magnetic Variation 15.708° W

METAR

TBPB 111000Z 09014KT 9999 -SHRA SCT018 26/19 Q1015 NOSIG

Decode

TAF

TAF TBPB 110500Z 1106/1206 09018KT 9999 SCT020

Decode

Destination Runways

ID Width Length Bearing (true/mag) Surface Threshold Overrun Markings Lighting
09 148 ft / 45 m 11,037 ft / 3,364 m 75.80° / 91.50° ASPHALT 0 ft / 0 m 174 ft / 53 m PREC-APP EDGE THRESHOLD CALVERT REIL-OMNI
27 148 ft / 45 m 11,037 ft / 3,364 m 255.80° / 271.51° ASPHALT 0 ft / 0 m 0 ft / 0 m PREC-APP EDGE THRESHOLD REIL-OMNI

Approach Navaids

Runway Type Ident Frequency Range Bearing (true/mag) Slope Elevation
09 LOC-ILS IBGI 110.10 MHz 18 nm / 33 km 75.85° / 91.56 ° - 168 ft / 51 m (AMSL)
09 GS IBGI 110.10 MHz 10 nm / 19 km 76.69° / 92.40 ° 3.00° 168 ft / 51 m (AMSL)
09 MM MM - - 75.85° / 91.55 ° - 169 ft / 52 m (AMSL)

Popular Alternatives